createdAt,value
2023-08-18T00:02:07.050Z,5.72
2023-08-18T00:04:33.475Z,5.55
2023-08-18T00:06:59.990Z,6.13
2023-08-18T00:09:26.466Z,6.40
2023-08-18T00:11:52.888Z,7.22
2023-08-18T00:14:19.335Z,6.70
2023-08-18T00:16:45.837Z,6.20
2023-08-18T00:19:12.480Z,7.20
2023-08-18T00:21:38.929Z,6.88
2023-08-18T00:24:05.668Z,7.00
2023-08-18T00:26:32.149Z,7.43
2023-08-18T00:28:58.572Z,7.57
2023-08-18T00:31:25.554Z,7.72
2023-08-18T00:33:52.135Z,8.93
2023-08-18T00:36:18.626Z,9.98
2023-08-18T00:38:45.183Z,8.77
2023-08-18T00:41:11.664Z,9.38
2023-08-18T00:43:38.154Z,9.55
2023-08-18T00:46:04.649Z,10.18
2023-08-18T00:48:31.253Z,9.48
2023-08-18T00:50:58.252Z,8.88
2023-08-18T00:53:24.690Z,8.73
2023-08-18T00:55:51.167Z,8.82
2023-08-18T00:58:17.993Z,8.65
2023-08-18T01:00:45.538Z,8.90
2023-08-18T01:03:12.166Z,8.82
2023-08-18T01:05:38.648Z,8.27
2023-08-18T01:08:05.392Z,9.13
2023-08-18T01:10:33.896Z,8.70
2023-08-18T01:13:13.422Z,7.82
2023-08-18T01:15:42.566Z,7.95
2023-08-18T01:18:11.188Z,8.55
2023-08-18T01:20:37.997Z,8.23
2023-08-18T01:23:05.482Z,8.75
2023-08-18T01:25:32.252Z,7.47
2023-08-18T01:27:59.783Z,8.52
2023-08-18T01:30:48.112Z,8.65
2023-08-18T01:33:25.500Z,7.82
2023-08-18T01:35:56.096Z,8.40
2023-08-18T01:38:23.482Z,9.13
2023-08-18T01:40:51.799Z,8.98
2023-08-18T01:43:18.883Z,8.68
2023-08-18T01:45:45.280Z,9.45
2023-08-18T01:48:11.772Z,8.98
2023-08-18T01:50:38.260Z,9.38
2023-08-18T01:53:04.836Z,8.85
2023-08-18T01:55:31.311Z,9.05
2023-08-18T01:57:57.808Z,8.85
2023-08-18T02:00:24.308Z,9.00
2023-08-18T02:02:50.840Z,9.32
2023-08-18T02:05:17.565Z,9.48
2023-08-18T02:07:44.101Z,9.25
2023-08-18T02:10:10.647Z,9.40
2023-08-18T02:12:37.130Z,9.27
2023-08-18T02:15:03.958Z,10.10
2023-08-18T02:17:31.055Z,9.57
2023-08-18T02:19:59.785Z,8.65
2023-08-18T02:22:29.060Z,9.73
2023-08-18T02:24:55.504Z,10.52
2023-08-18T02:27:22.131Z,9.38
2023-08-18T02:29:48.942Z,9.52
2023-08-18T02:32:19.287Z,9.35
2023-08-18T02:34:47.105Z,10.15
2023-08-18T02:37:13.674Z,9.52
2023-08-18T02:39:40.336Z,9.25
2023-08-18T02:42:06.968Z,10.07
2023-08-18T02:44:33.470Z,9.45
2023-08-18T02:47:00.022Z,10.20
2023-08-18T02:49:26.467Z,10.23
2023-08-18T02:51:52.927Z,10.02
2023-08-18T02:54:19.382Z,10.32
2023-08-18T02:56:45.836Z,9.60
2023-08-18T02:59:12.319Z,9.05
2023-08-18T03:01:38.804Z,8.88
2023-08-18T03:04:05.460Z,9.85
2023-08-18T03:06:32.055Z,10.10
2023-08-18T03:08:58.507Z,11.18
2023-08-18T03:11:25.374Z,10.07
2023-08-18T03:13:52.819Z,10.85
2023-08-18T03:16:19.615Z,11.65
2023-08-18T03:18:46.407Z,11.18
2023-08-18T03:21:12.850Z,11.68
2023-08-18T03:23:39.360Z,12.95
2023-08-18T03:26:06.566Z,11.50
2023-08-18T03:28:35.647Z,12.00
2023-08-18T03:31:03.443Z,11.85
2023-08-18T03:33:30.541Z,11.80
2023-08-18T03:35:57.316Z,11.27
2023-08-18T03:38:24.331Z,12.00
2023-08-18T03:40:51.041Z,10.88
2023-08-18T03:43:17.582Z,11.88
2023-08-18T03:45:44.118Z,11.63
2023-08-18T03:48:10.744Z,12.07
2023-08-18T03:50:38.821Z,11.45
2023-08-18T03:53:05.304Z,11.70
2023-08-18T03:55:31.943Z,11.77
2023-08-18T03:57:58.418Z,11.23
2023-08-18T04:00:24.880Z,11.25
2023-08-18T04:02:51.704Z,11.50
2023-08-18T04:05:18.165Z,11.07
2023-08-18T04:07:44.581Z,12.10
2023-08-18T04:10:11.094Z,10.98
2023-08-18T04:12:37.595Z,10.63
2023-08-18T04:15:04.939Z,10.20
2023-08-18T04:17:31.572Z,11.15
2023-08-18T04:19:58.003Z,10.70
2023-08-18T04:22:24.441Z,10.57
2023-08-18T04:24:51.825Z,10.30
2023-08-18T04:27:18.283Z,11.32
2023-08-18T04:29:45.488Z,10.63
2023-08-18T04:32:11.910Z,12.00
2023-08-18T04:34:38.377Z,10.73
2023-08-18T04:37:04.862Z,11.27
2023-08-18T04:39:31.293Z,10.40
2023-08-18T04:41:58.555Z,10.52
2023-08-18T04:44:25.007Z,11.30
2023-08-18T04:46:51.479Z,9.98
2023-08-18T04:49:17.920Z,9.70
2023-08-18T04:51:44.370Z,10.52
2023-08-18T04:54:12.725Z,10.73
2023-08-18T04:56:39.399Z,9.75
2023-08-18T04:59:05.935Z,11.55
2023-08-18T05:01:33.000Z,9.93
2023-08-18T05:03:59.484Z,11.57
2023-08-18T05:06:26.011Z,10.73
2023-08-18T05:08:52.508Z,9.90
2023-08-18T05:11:18.928Z,10.00
2023-08-18T05:13:45.362Z,10.23
2023-08-18T05:16:11.918Z,9.77
2023-08-18T05:18:38.425Z,10.30
2023-08-18T05:21:04.949Z,10.00
2023-08-18T05:23:31.987Z,9.65
2023-08-18T05:26:00.424Z,9.48
2023-08-18T05:28:29.345Z,11.05
2023-08-18T05:30:56.009Z,10.07
2023-08-18T05:33:22.606Z,10.07
2023-08-18T05:35:49.055Z,10.00
2023-08-18T05:38:15.715Z,9.75
2023-08-18T05:40:44.990Z,9.15
2023-08-18T05:43:13.508Z,10.23
2023-08-18T05:45:40.148Z,9.10
2023-08-18T05:48:06.970Z,9.55
2023-08-18T05:50:33.869Z,8.70
2023-08-18T05:53:02.506Z,9.80
2023-08-18T05:55:29.256Z,10.02
2023-08-18T05:57:58.766Z,9.27
2023-08-18T06:00:25.221Z,9.27
2023-08-18T06:02:51.673Z,10.40
2023-08-18T06:05:18.225Z,9.60
2023-08-18T06:07:44.647Z,9.77
2023-08-18T06:10:12.280Z,9.18
2023-08-18T06:12:39.304Z,10.20
2023-08-18T06:15:07.140Z,9.88
2023-08-18T06:17:33.769Z,10.30
2023-08-18T06:20:01.020Z,11.27
2023-08-18T06:22:27.970Z,10.15
2023-08-18T06:24:54.671Z,10.82
2023-08-18T06:27:21.086Z,9.70
2023-08-18T06:29:47.554Z,10.15
2023-08-18T06:32:13.976Z,9.75
2023-08-18T06:34:40.465Z,11.18
2023-08-18T06:37:06.966Z,10.65
2023-08-18T06:39:33.532Z,9.63
2023-08-18T06:41:59.982Z,9.68
2023-08-18T06:44:26.500Z,10.20
2023-08-18T06:46:52.917Z,9.93
2023-08-18T06:49:19.322Z,10.55
2023-08-18T06:51:45.787Z,10.02
2023-08-18T06:54:12.228Z,10.25
2023-08-18T06:56:38.666Z,10.68
2023-08-18T06:59:05.127Z,9.15
2023-08-18T07:01:31.703Z,10.20
2023-08-18T07:03:58.325Z,9.93
2023-08-18T07:06:24.817Z,9.57
2023-08-18T07:08:51.229Z,10.45
2023-08-18T07:11:17.760Z,9.95
2023-08-18T07:13:44.769Z,9.07
2023-08-18T07:16:11.371Z,9.05
2023-08-18T07:18:37.834Z,9.68
2023-08-18T07:21:05.078Z,10.10
2023-08-18T07:23:31.472Z,9.25
2023-08-18T07:25:57.993Z,9.70
2023-08-18T07:28:24.497Z,9.05
2023-08-18T07:30:50.912Z,8.82
2023-08-18T07:33:17.432Z,8.90
2023-08-18T07:35:44.005Z,9.57
2023-08-18T07:38:10.421Z,8.40
2023-08-18T07:40:36.856Z,8.82
2023-08-18T07:43:04.488Z,9.35
2023-08-18T07:45:31.614Z,9.13
2023-08-18T07:47:58.807Z,8.77
2023-08-18T07:50:25.271Z,9.65
2023-08-18T07:52:51.710Z,10.40
2023-08-18T07:57:48.588Z,8.65
2023-08-18T08:00:18.908Z,8.45
2023-08-18T08:02:46.625Z,9.35
2023-08-18T08:05:13.987Z,9.43
2023-08-18T08:07:41.517Z,8.80
2023-08-18T08:10:08.553Z,9.02
2023-08-18T08:12:37.839Z,9.05
2023-08-18T08:15:04.885Z,8.32
2023-08-18T08:17:31.931Z,9.90
2023-08-18T08:19:59.176Z,8.00
2023-08-18T08:22:25.631Z,9.25
2023-08-18T08:24:55.722Z,10.05
2023-08-18T08:27:22.700Z,10.02
2023-08-18T08:29:49.129Z,9.43
2023-08-18T08:32:15.597Z,10.30
2023-08-18T08:34:49.056Z,8.48
2023-08-18T08:37:15.988Z,9.75
2023-08-18T08:39:47.519Z,10.65
2023-08-18T08:42:14.336Z,10.18
2023-08-18T08:44:40.737Z,10.60
2023-08-18T08:47:07.288Z,11.32
2023-08-18T08:49:36.128Z,10.63
2023-08-18T08:52:09.984Z,10.10
2023-08-18T08:54:39.925Z,11.90
2023-08-18T08:57:10.755Z,9.98
2023-08-18T08:59:37.751Z,11.25
2023-08-18T09:02:04.256Z,10.95
2023-08-18T09:04:30.732Z,10.23
2023-08-18T09:06:59.008Z,11.63
2023-08-18T09:09:25.464Z,11.13
2023-08-18T09:11:52.066Z,10.00
2023-08-18T09:14:18.533Z,9.98
2023-08-18T09:16:45.956Z,10.57
2023-08-18T09:19:14.144Z,9.95
2023-08-18T09:21:40.955Z,9.40
2023-08-18T09:24:08.692Z,10.52
2023-08-18T09:26:35.238Z,10.85
2023-08-18T09:29:03.305Z,10.07
2023-08-18T09:31:30.311Z,9.63
2023-08-18T09:33:56.875Z,10.25
2023-08-18T09:36:23.404Z,9.25
2023-08-18T09:38:50.038Z,10.57
2023-08-18T09:41:17.150Z,9.35
2023-08-18T09:43:43.668Z,10.98
2023-08-18T09:46:14.139Z,10.02
2023-08-18T09:48:45.233Z,9.52
2023-08-18T09:51:13.296Z,10.32
2023-08-18T09:53:43.726Z,10.02
2023-08-18T09:56:13.985Z,10.23
2023-08-18T09:58:51.910Z,9.25
2023-08-18T10:01:18.822Z,9.55
2023-08-18T10:03:47.609Z,9.93
2023-08-18T10:06:14.090Z,11.23
2023-08-18T10:08:41.968Z,11.02
2023-08-18T10:11:09.203Z,8.85
2023-08-18T10:13:36.219Z,10.45
2023-08-18T10:16:04.974Z,10.23
2023-08-18T10:18:32.270Z,8.68
2023-08-18T10:20:59.500Z,9.10
2023-08-18T10:23:29.872Z,9.50
2023-08-18T10:25:56.599Z,9.43
2023-08-18T10:28:29.896Z,9.77
2023-08-18T10:31:05.823Z,9.63
2023-08-18T10:33:34.331Z,9.63
2023-08-18T10:36:03.781Z,9.93
2023-08-18T10:38:31.084Z,11.13
2023-08-18T10:40:57.902Z,10.02
2023-08-18T10:43:27.641Z,10.07
2023-08-18T10:46:00.576Z,11.13
2023-08-18T10:48:34.157Z,12.13
2023-08-18T10:51:01.638Z,11.98
2023-08-18T10:53:35.564Z,11.32
2023-08-18T10:56:02.001Z,10.85
2023-08-18T10:58:28.537Z,11.63
2023-08-18T11:00:55.077Z,9.75
2023-08-18T11:03:21.639Z,10.88
2023-08-18T11:05:48.273Z,12.13
2023-08-18T11:08:14.940Z,12.15
2023-08-18T11:10:43.973Z,10.90
2023-08-18T11:13:30.249Z,10.45
2023-08-18T11:15:57.541Z,9.55
2023-08-18T11:18:26.369Z,10.60
2023-08-18T11:20:54.420Z,11.68
2023-08-18T11:23:20.932Z,10.13
2023-08-18T11:25:47.958Z,8.93
2023-08-18T11:28:15.242Z,11.32
2023-08-18T11:30:41.853Z,11.07
2023-08-18T11:33:08.508Z,10.27
2023-08-18T11:35:35.316Z,10.50
2023-08-18T11:38:02.811Z,10.88
2023-08-18T11:40:29.498Z,11.85
2023-08-18T11:42:56.020Z,10.85
2023-08-18T11:45:24.447Z,10.23
2023-08-18T11:48:00.404Z,10.88
2023-08-18T11:50:40.488Z,11.43
2023-08-18T11:53:08.554Z,10.23
2023-08-18T11:55:37.383Z,10.57
2023-08-18T11:58:09.720Z,12.75
2023-08-18T12:00:37.916Z,10.50
2023-08-18T12:03:05.464Z,10.85
2023-08-18T12:05:32.379Z,11.25
2023-08-18T12:08:05.887Z,12.18
2023-08-18T12:10:32.392Z,13.85
2023-08-18T12:12:59.019Z,11.75
2023-08-18T12:15:26.698Z,11.18
2023-08-18T12:17:54.584Z,11.88
2023-08-18T12:20:22.188Z,11.30
2023-08-18T12:22:50.336Z,11.82
2023-08-18T12:25:17.728Z,10.38
2023-08-18T12:27:51.048Z,10.55
2023-08-18T12:30:18.166Z,11.52
2023-08-18T12:32:45.965Z,12.32
2023-08-18T12:35:12.549Z,11.05
2023-08-18T12:37:39.155Z,10.20
2023-08-18T12:40:06.846Z,9.95
2023-08-18T12:42:34.006Z,10.88
2023-08-18T12:45:00.574Z,9.68
2023-08-18T12:47:27.157Z,8.77
2023-08-18T12:49:53.773Z,8.25
2023-08-18T12:52:20.244Z,9.75
2023-08-18T12:54:47.469Z,9.00
2023-08-18T12:57:13.947Z,8.35
2023-08-18T12:59:40.406Z,10.25
2023-08-18T13:02:06.924Z,9.90
2023-08-18T13:04:33.908Z,9.93
2023-08-18T13:07:00.503Z,9.82
2023-08-18T13:09:28.297Z,9.68
2023-08-18T13:11:55.854Z,8.50
2023-08-18T13:14:26.045Z,9.57
2023-08-18T13:16:58.885Z,9.48
2023-08-18T13:19:26.659Z,9.05
2023-08-18T13:21:58.250Z,9.10
2023-08-18T13:24:26.369Z,9.52
2023-08-18T13:26:53.012Z,9.77
2023-08-18T13:29:20.363Z,10.30
2023-08-18T13:31:49.471Z,9.65
2023-08-18T13:34:16.847Z,10.27
2023-08-18T13:36:43.346Z,8.45
2023-08-18T13:39:10.081Z,7.95
2023-08-18T13:41:36.525Z,7.82
2023-08-18T13:44:03.967Z,7.45
2023-08-18T13:46:31.315Z,7.82
2023-08-18T13:48:57.960Z,6.40
2023-08-18T13:51:24.422Z,8.77
2023-08-18T13:53:50.929Z,6.68
2023-08-18T13:56:17.422Z,7.47
2023-08-18T13:58:43.845Z,8.02
2023-08-18T14:01:10.282Z,6.95
2023-08-18T14:03:36.764Z,8.13
2023-08-18T14:06:03.402Z,7.28
2023-08-18T14:08:29.845Z,7.72
2023-08-18T14:10:56.328Z,6.57
2023-08-18T14:13:22.877Z,6.43
2023-08-18T14:15:49.322Z,6.68
2023-08-18T14:18:17.536Z,6.90
2023-08-18T14:20:46.982Z,6.65
2023-08-18T14:23:14.429Z,7.60
2023-08-18T14:25:41.329Z,6.68
2023-08-18T14:28:08.043Z,6.70
2023-08-18T14:30:34.590Z,7.50
2023-08-18T14:33:02.238Z,7.43
2023-08-18T14:35:28.688Z,8.75
2023-08-18T14:37:55.675Z,6.65
2023-08-18T14:40:22.203Z,6.50
2023-08-18T14:42:49.354Z,8.10
2023-08-18T14:45:18.279Z,7.47
2023-08-18T14:47:44.966Z,8.85
2023-08-18T14:50:11.589Z,9.25
2023-08-18T14:52:38.120Z,8.90
2023-08-18T14:55:05.538Z,9.40
2023-08-18T14:57:33.841Z,8.82
2023-08-18T15:00:00.277Z,9.70
2023-08-18T15:02:26.766Z,8.70
2023-08-18T15:04:53.284Z,9.55
2023-08-18T15:07:19.753Z,10.63
2023-08-18T15:09:46.219Z,10.50
2023-08-18T15:12:12.770Z,11.02
2023-08-18T15:14:39.613Z,11.85
2023-08-18T15:17:06.286Z,11.25
2023-08-18T15:19:33.278Z,11.02
2023-08-18T15:22:00.398Z,10.80
2023-08-18T15:24:26.982Z,10.68
2023-08-18T15:26:53.463Z,11.18
2023-08-18T15:29:19.886Z,10.07
2023-08-18T15:31:46.342Z,9.30
2023-08-18T15:34:12.829Z,10.80
2023-08-18T15:36:39.384Z,10.15
2023-08-18T15:39:06.028Z,10.95
2023-08-18T15:41:35.060Z,10.25
2023-08-18T15:44:02.107Z,10.30
2023-08-18T15:46:28.606Z,10.88
2023-08-18T15:48:55.397Z,11.38
2023-08-18T15:51:22.303Z,11.75
2023-08-18T15:53:49.343Z,10.90
2023-08-18T15:56:16.043Z,11.25
2023-08-18T15:58:42.861Z,11.38
2023-08-18T16:01:09.400Z,10.63
2023-08-18T16:03:35.975Z,10.52
2023-08-18T16:06:06.811Z,10.15
2023-08-18T16:08:33.782Z,9.90
2023-08-18T16:11:00.387Z,10.48
2023-08-18T16:13:26.873Z,10.90
2023-08-18T16:16:00.661Z,11.05
2023-08-18T16:18:27.667Z,11.48
2023-08-18T16:20:54.816Z,10.85
2023-08-18T16:23:21.386Z,10.98
2023-08-18T16:25:47.905Z,9.80
2023-08-18T16:28:14.604Z,10.73
2023-08-18T16:30:41.306Z,10.80
2023-08-18T16:33:07.900Z,11.93
2023-08-18T16:35:34.430Z,12.02
2023-08-18T16:38:00.962Z,12.10
2023-08-18T16:40:27.530Z,13.00
2023-08-18T16:42:57.595Z,11.18
2023-08-18T16:45:24.469Z,10.98
2023-08-18T16:47:50.982Z,9.52
2023-08-18T16:50:17.538Z,8.05
2023-08-18T16:52:43.940Z,6.65
2023-08-18T16:55:10.449Z,6.43
2023-08-18T16:57:36.900Z,6.22
2023-08-18T17:00:04.779Z,7.25
2023-08-18T17:02:32.424Z,6.63
2023-08-18T17:04:58.858Z,7.45
2023-08-18T17:07:25.322Z,7.15
2023-08-18T17:09:51.812Z,7.55
2023-08-18T17:12:18.257Z,7.63
2023-08-18T17:14:44.738Z,8.02
2023-08-18T17:17:12.425Z,7.30
2023-08-18T17:19:38.927Z,7.22
2023-08-18T17:22:05.389Z,6.70
2023-08-18T17:24:31.902Z,7.20
2023-08-18T17:26:59.709Z,7.80
2023-08-18T17:29:26.255Z,7.65
2023-08-18T17:31:52.679Z,7.40
2023-08-18T17:34:19.200Z,7.35
2023-08-18T17:36:46.516Z,7.75
2023-08-18T17:39:12.953Z,6.70
2023-08-18T17:41:39.417Z,7.80
2023-08-18T17:44:06.026Z,7.43
2023-08-18T17:46:34.146Z,8.10
2023-08-18T17:49:02.206Z,6.95
2023-08-18T17:51:28.662Z,7.20
2023-08-18T17:53:55.294Z,7.82
2023-08-18T17:56:21.768Z,8.60
2023-08-18T17:58:48.185Z,8.18
2023-08-18T18:01:14.699Z,7.28
2023-08-18T18:03:41.327Z,9.38
2023-08-18T18:06:10.334Z,8.07
2023-08-18T18:08:36.822Z,9.13
2023-08-18T18:11:04.497Z,8.68
2023-08-18T18:13:34.002Z,8.32
2023-08-18T18:16:00.653Z,8.13
2023-08-18T18:18:27.144Z,9.48
2023-08-18T18:20:53.584Z,9.40
2023-08-18T18:23:20.076Z,8.90
2023-08-18T18:25:46.504Z,9.02
2023-08-18T18:28:13.023Z,8.70
2023-08-18T18:30:39.597Z,9.25
2023-08-18T18:33:07.094Z,8.40
2023-08-18T18:35:34.691Z,8.15
2023-08-18T18:38:01.195Z,8.57
2023-08-18T18:40:27.647Z,9.10
2023-08-18T18:42:54.144Z,8.27
2023-08-18T18:45:20.996Z,9.07
2023-08-18T18:47:47.564Z,8.30
2023-08-18T18:50:14.064Z,8.80
2023-08-18T18:52:40.726Z,8.30
2023-08-18T18:55:07.536Z,8.60
2023-08-18T18:57:34.159Z,8.10
2023-08-18T19:00:00.945Z,9.25
2023-08-18T19:02:28.890Z,10.20
2023-08-18T19:04:55.453Z,9.02
2023-08-18T19:07:22.478Z,10.32
2023-08-18T19:09:49.607Z,10.35
2023-08-18T19:12:16.075Z,11.48
2023-08-18T19:14:45.880Z,10.07
2023-08-18T19:17:12.673Z,10.18
2023-08-18T19:19:39.724Z,10.65
2023-08-18T19:22:06.207Z,10.20
2023-08-18T19:24:33.608Z,10.32
2023-08-18T19:27:00.200Z,9.93
2023-08-18T19:29:26.622Z,9.02
2023-08-18T19:31:53.959Z,9.77
2023-08-18T19:34:20.622Z,10.80
2023-08-18T19:36:47.107Z,10.07
2023-08-18T19:39:13.540Z,9.85
2023-08-18T19:41:39.974Z,8.90
2023-08-18T19:44:06.641Z,9.60
2023-08-18T19:46:33.183Z,9.50
2023-08-18T19:48:59.785Z,9.65
2023-08-18T19:51:26.228Z,10.40
2023-08-18T19:53:52.682Z,10.10
2023-08-18T19:56:19.127Z,10.98
2023-08-18T19:58:45.570Z,9.55
2023-08-18T20:01:12.105Z,11.00
2023-08-18T20:03:38.636Z,10.02
2023-08-18T20:06:05.267Z,10.77
2023-08-18T20:08:32.202Z,10.90
2023-08-18T20:10:58.863Z,11.40
2023-08-18T20:13:25.356Z,10.60
2023-08-18T20:15:51.866Z,10.27
2023-08-18T20:18:18.357Z,10.30
2023-08-18T20:20:46.086Z,11.18
2023-08-18T20:23:12.690Z,10.43
2023-08-18T20:25:39.352Z,11.55
2023-08-18T20:28:05.994Z,11.73
2023-08-18T20:30:32.563Z,11.43
2023-08-18T20:32:59.388Z,11.30
2023-08-18T20:35:26.296Z,11.50
2023-08-18T20:37:53.341Z,11.90
2023-08-18T20:40:19.827Z,12.35
2023-08-18T20:42:46.332Z,11.45
2023-08-18T20:45:12.816Z,12.23
2023-08-18T20:47:39.783Z,11.13
2023-08-18T20:50:07.853Z,11.40
2023-08-18T20:52:34.525Z,10.02
2023-08-18T20:55:01.140Z,10.85
2023-08-18T20:57:28.700Z,11.52
2023-08-18T20:59:56.216Z,10.52
2023-08-18T21:02:24.177Z,11.20
2023-08-18T21:04:50.700Z,10.77
2023-08-18T21:07:17.168Z,9.73
2023-08-18T21:09:43.695Z,10.32
2023-08-18T21:12:10.205Z,10.77
2023-08-18T21:14:36.646Z,10.30
2023-08-18T21:17:04.352Z,10.88
2023-08-18T21:19:31.260Z,12.98
2023-08-18T21:21:57.693Z,12.00
2023-08-18T21:24:24.255Z,12.18
2023-08-18T21:26:50.952Z,11.63
2023-08-18T21:29:18.880Z,12.43
2023-08-18T21:31:45.427Z,12.93
2023-08-18T21:34:11.941Z,13.50
2023-08-18T21:36:38.402Z,11.88
2023-08-18T21:39:06.277Z,12.73
2023-08-18T21:41:33.319Z,12.32
2023-08-18T21:44:00.031Z,12.75
2023-08-18T21:46:26.562Z,12.38
2023-08-18T21:48:53.412Z,12.52
2023-08-18T21:51:19.945Z,13.80
2023-08-18T21:53:46.575Z,12.43
2023-08-18T21:56:13.115Z,12.75
2023-08-18T21:58:39.549Z,12.52
2023-08-18T22:01:09.987Z,12.85
2023-08-18T22:03:36.544Z,12.52
2023-08-18T22:06:06.988Z,12.40
2023-08-18T22:08:33.450Z,13.38
2023-08-18T22:10:59.858Z,12.77
2023-08-18T22:13:26.478Z,12.05
2023-08-18T22:15:53.045Z,12.25
2023-08-18T22:18:19.516Z,13.68
2023-08-18T22:20:46.016Z,13.02
2023-08-18T22:23:12.747Z,13.82
2023-08-18T22:25:39.194Z,13.48
2023-08-18T22:28:05.850Z,13.95
2023-08-18T22:30:32.316Z,14.60
2023-08-18T22:32:59.653Z,14.43
2023-08-18T22:35:26.135Z,15.00
2023-08-18T22:37:52.548Z,14.43
2023-08-18T22:40:18.969Z,14.73
2023-08-18T22:42:47.034Z,12.95
2023-08-18T22:45:16.530Z,13.05
2023-08-18T22:47:43.563Z,13.73
2023-08-18T22:50:10.407Z,13.43
2023-08-18T22:52:36.940Z,12.20
2023-08-18T22:55:05.445Z,13.27
2023-08-18T22:57:32.086Z,13.68
2023-08-18T22:59:59.417Z,12.57
2023-08-18T23:02:26.687Z,13.05
2023-08-18T23:04:53.345Z,12.85
2023-08-18T23:07:19.822Z,13.10
2023-08-18T23:09:46.375Z,13.23
2023-08-18T23:12:12.914Z,13.40
2023-08-18T23:14:39.564Z,15.00
2023-08-18T23:17:06.664Z,14.10
2023-08-18T23:19:33.161Z,13.82
2023-08-18T23:21:59.689Z,13.95
2023-08-18T23:24:26.791Z,13.95
2023-08-18T23:26:53.229Z,13.02
2023-08-18T23:29:19.741Z,13.48
2023-08-18T23:31:46.163Z,13.10
2023-08-18T23:34:12.693Z,13.07
2023-08-18T23:36:39.893Z,13.07
2023-08-18T23:39:08.701Z,13.25
2023-08-18T23:41:35.153Z,14.15
2023-08-18T23:44:01.638Z,13.98
2023-08-18T23:46:28.112Z,13.10
2023-08-18T23:48:54.649Z,13.52
2023-08-18T23:51:21.159Z,14.07
2023-08-18T23:53:47.708Z,14.18
2023-08-18T23:56:17.728Z,14.52
2023-08-18T23:58:44.232Z,12.75
